Stacja Pogody
Warszawa Praga-Północ

Szerokość 52°15'43"N Długość 21°01'22"E Wysokość 110m n.p.m.


178 dzień roku. Do końca pozostalo 188 dni.
Wschód Słońca 04:15 Górowanie Słońca 12:38 Zachód Słońca 21:01 rak
Data juliańska 2457566.453 Odległość Słońca 152080078 km Średn. kątowa Słońca 0,315°
Wschód Księżyca 00:00 Zachód Księżyca 11:02 Wiek Księżyca 21 dni Moon
Widoczność Księżyca 59,45% Odległość Księżyca 367685 km Średn. kątowa Księżyca 0,325°
Dzień krótszy od najdłuższego o: 00:02 Długość dnia 16:45 Imieniny Jana, Pawła



  Aktualizacja: 26-06-2016 22:50:23
TEMPERATURA
Aktualnie: 19.0°C ↓
Temp. odczuwalna (wind chill):21.5°C
Punkt rosy19.0°C
WIATR
Średnia prędkość: 3.6km/h ↑
Prędkość w podmuchach:7.2km/h
Przepływ w ciągu doby:189.2km
Kierunek wiatru:180°
CIŚNIENIE
Względne:1015.0hPa
Bezwzględne:1001.8hPa
Trend ciśnienia:powolny wzrost
WILGOTNOŚĆ
Wilgotność względna: 100% ↑
Podstawa chmur0m
DESZCZ
W ostatniej godzinie: 0.0mm
Dzisiaj:9.9mm
W tym miesiącu:57.9mm
METAR
EPWA 262030Z 27006KT 240V300 7000 OVC005 19/19 Q1015 NOSIG
Ostrzeżenia burzowe





a  a a